Ust' Kalmanka, Russia
Current Conditions -  °F | °C
As of 9:30 AM on Monday 22 Dec 2014 (Local Time) from UNBB Reporting Station
Broken Clouds Broken Clouds  
Wind Chill:   Ceiling: 10000
Heat Index: 18°   Visibility: 6mi
Dew Point: 12°   Wind: 11mph
Humidity: 79%   Direction: 190°S
Pressure: 30.18"   Gusts: NA
Location:  52.12°N, 83.32°E
Report Text: UNBB 220230Z 19005MPS 9999 SCT040 BKN100 M08/M11 Q1022 NOSIGRMK QFE744/0992 24390137
Loading
Personal Weather Stations






























Interactive Weather Map New forecast layout! Learn more

10-Day Weather Forecast

Advertisements
Track Severe Weather on mobile